Time;durP1;ratioP1;P1;durP2;ratioP2;P2;SDS_P1;SDS_P2;PMS_P1;PMS_P2;Temp;Humidity;BMP_temperature;BMP_pressure;BME280_temperature;BME280_humidity;BME280_pressure;Samples;Min_cycle;Max_cycle;Signal;HPM_P1;HPM_P2
2021/12/06 00:00:38;;;;;;;;;;;;;;;0.33;100.00;99274.50;6700019;26;34858;-82
2021/12/06 00:03:48;;;;;;;;;;;;;;;0.30;100.00;99266.91;6696957;26;34272;-81
2021/12/06 00:06:55;;;;;;;;;;;;;;;0.26;100.00;99276.69;6700551;26;34801;-81
2021/12/06 00:10:00;;;;;;;;;;;;;;;0.29;100.00;99284.25;6700038;26;34901;-81
2021/12/06 00:13:03;;;;;;;;;;;;;;;0.41;100.00;99305.22;6700856;26;35030;-81
2021/12/06 00:16:17;;;;;;;;;;;;;;;0.44;100.00;99312.81;6700898;26;34233;-81
2021/12/06 00:19:20;;;;;;;;;;;;;;;0.36;100.00;99315.91;6700069;26;34412;-81
2021/12/06 00:22:23;;;;;;;;;;;;;;;0.33;100.00;99299.69;6700647;26;35031;-81
2021/12/06 00:25:26;;;;;;;;;;;;;;;0.35;100.00;99308.22;6699574;26;34641;-81
2021/12/06 00:28:28;;;;;;;;;;;;;;;0.34;100.00;99309.16;6700005;26;35101;-81
2021/12/06 00:31:33;;;;;;;;;;;;;;;0.39;100.00;99309.72;6701062;26;35253;-81
2021/12/06 00:34:38;;;;;;;;;;;;;;;0.35;100.00;99300.41;6699458;26;34442;-81
2021/12/06 00:37:53;;;;;;;;;;;;;;;0.37;100.00;99306.38;6699440;26;34485;-81
2021/12/06 00:40:56;;;;;;;;;;;;;;;0.18;100.00;99312.75;6700127;26;34465;-81
2021/12/06 00:44:00;;;;;;;;;;;;;;;0.21;100.00;99317.75;6702444;26;34956;-81
2021/12/06 00:47:02;;;;;;;;;;;;;;;0.11;100.00;99314.91;6701389;26;36980;-81
2021/12/06 00:50:06;;;;;;;;;;;;;;;0.29;100.00;99307.69;6700036;26;35424;-82
2021/12/06 00:53:10;;;;;;;;;;;;;;;0.20;100.00;99300.47;6700278;26;34831;-82
2021/12/06 00:56:15;;;;;;;;;;;;;;;0.21;100.00;99311.72;6699760;26;34823;-81
2021/12/06 00:59:19;;;;;;;;;;;;;;;0.11;100.00;99320.09;6699975;26;34353;-81
2021/12/06 01:02:25;;;;;;;;;;;;;;;0.12;100.00;99318.34;6700080;26;34752;-81
2021/12/06 01:05:28;;;;;;;;;;;;;;;0.17;100.00;99316.28;6700075;26;34758;-81
2021/12/06 01:08:30;;;;;;;;;;;;;;;0.20;100.00;99313.47;6703196;26;34892;-81
2021/12/06 01:11:33;;;;;;;;;;;;;;;0.30;100.00;99319.75;6699309;26;34641;-81
2021/12/06 01:14:38;;;;;;;;;;;;;;;0.40;100.00;99327.81;6699504;26;34913;-81
2021/12/06 01:17:46;;;;;;;;;;;;;;;0.35;100.00;99316.84;6699959;26;34458;-81
2021/12/06 01:21:44;;;;;;;;;;;;;;;0.32;100.00;99324.03;6700275;26;35316;-81
2021/12/06 01:24:20;;;;;;;;;;;;;;;0.22;100.00;99318.59;6696226;26;34739;-81
2021/12/06 01:27:38;;;;;;;;;;;;;;;0.28;100.00;99295.59;6699933;26;35357;-81
2021/12/06 01:40:27;;;;;;;;;;;;;;;0.33;100.00;99299.69;6700822;26;34630;-81
2021/12/06 01:43:32;;;;;;;;;;;;;;;0.34;100.00;99301.34;6700663;26;34502;-81
2021/12/06 01:46:41;;;;;;;;;;;;;;;0.33;100.00;99284.06;6700154;26;34971;-81
2021/12/06 01:49:53;;;;;;;;;;;;;;;0.28;100.00;99287.78;6701302;26;35782;-81
2021/12/06 01:52:57;;;;;;;;;;;;;;;0.27;100.00;99291.38;6707810;26;34210;-81
2021/12/06 01:56:00;;;;;;;;;;;;;;;0.29;100.00;99297.28;6705371;26;35246;-81
2021/12/06 01:59:03;;;;;;;;;;;;;;;0.43;100.00;99300.75;6701707;26;35744;-81
2021/12/06 02:02:07;;;;;;;;;;;;;;;0.41;100.00;99303.47;6701652;26;34911;-81
2021/12/06 02:05:10;;;;;;;;;;;;;;;0.35;100.00;99300.41;6706476;26;35112;-81
2021/12/06 02:08:13;;;;;;;;;;;;;;;0.36;100.00;99299.50;6700665;26;34931;-80
2021/12/06 02:11:16;;;;;;;;;;;;;;;0.41;100.00;99297.41;6704863;26;35338;-80
2021/12/06 02:17:29;;;;;;;;;;;;;;;0.43;100.00;99298.13;6700262;26;34396;-80
2021/12/06 02:20:36;;;;;;;;;;;;;;;0.49;100.00;99289.94;6699493;26;34955;-80
2021/12/06 02:23:39;;;;;;;;;;;;;;;0.52;100.00;99274.09;6699966;26;35364;-80
2021/12/06 02:26:43;;;;;;;;;;;;;;;0.66;100.00;99269.75;6699473;26;34937;-80
2021/12/06 02:29:47;;;;;;;;;;;;;;;0.59;100.00;99269.31;6699355;26;34588;-80
2021/12/06 02:32:52;;;;;;;;;;;;;;;0.54;100.00;99261.81;6681436;26;34600;-80
2021/12/06 02:35:55;;;;;;;;;;;;;;;0.54;100.00;99276.63;6699917;26;34336;-80
2021/12/06 02:38:58;;;;;;;;;;;;;;;0.47;100.00;99276.19;6699623;26;34433;-79
2021/12/06 02:42:01;;;;;;;;;;;;;;;0.45;100.00;99272.84;6699339;26;35201;-79
2021/12/06 02:45:05;;;;;;;;;;;;;;;0.46;100.00;99274.53;6703187;26;35361;-79
2021/12/06 02:48:10;;;;;;;;;;;;;;;0.50;100.00;99276.00;6700756;26;35573;-80
2021/12/06 02:51:14;;;;;;;;;;;;;;;0.52;100.00;99281.91;6699260;26;34726;-81
2021/12/06 02:54:23;;;;;;;;;;;;;;;0.44;100.00;99271.19;6699212;26;34709;-80
2021/12/06 02:57:35;;;;;;;;;;;;;;;0.42;100.00;99273.91;6699948;26;34749;-81
2021/12/06 03:00:39;;;;;;;;;;;;;;;0.47;100.00;99291.81;6699908;26;34773;-81
2021/12/06 03:03:41;;;;;;;;;;;;;;;0.47;100.00;99291.81;6700411;26;35398;-82
2021/12/06 03:06:47;;;;;;;;;;;;;;;0.42;100.00;99299.94;6700145;26;34783;-81
2021/12/06 03:09:52;;;;;;;;;;;;;;;0.56;100.00;99301.59;6699759;26;35658;-82
2021/12/06 03:12:55;;;;;;;;;;;;;;;0.74;100.00;99298.69;6698882;26;35414;-82
2021/12/06 03:15:57;;;;;;;;;;;;;;;0.64;100.00;99302.84;6700499;26;34467;-82
2021/12/06 03:19:00;;;;;;;;;;;;;;;0.66;100.00;99303.59;6700200;26;35208;-82
2021/12/06 03:22:04;;;;;;;;;;;;;;;0.69;100.00;99306.81;6700750;26;34563;-81
2021/12/06 03:25:10;;;;;;;;;;;;;;;0.60;100.00;99299.63;6700818;26;34510;-81
2021/12/06 03:28:13;;;;;;;;;;;;;;;0.49;100.00;99300.34;6700884;26;34477;-81
2021/12/06 03:31:16;;;;;;;;;;;;;;;0.60;100.00;99297.03;6700931;26;37064;-81
2021/12/06 03:34:20;;;;;;;;;;;;;;;0.37;100.00;99295.97;6700542;26;35347;-80
2021/12/06 03:37:23;;;;;;;;;;;;;;;0.35;100.00;99303.03;6703853;26;34565;-81
2021/12/06 03:40:25;;;;;;;;;;;;;;;0.34;100.00;99306.56;6700897;26;35386;-82
2021/12/06 03:43:32;;;;;;;;;;;;;;;0.37;100.00;99316.78;6699921;26;34889;-81
2021/12/06 03:46:35;;;;;;;;;;;;;;;0.36;100.00;99320.31;6701292;26;34151;-81
2021/12/06 03:49:38;;;;;;;;;;;;;;;0.31;100.00;99331.03;6700935;26;34864;-81
2021/12/06 03:52:41;;;;;;;;;;;;;;;0.29;100.00;99320.69;6701246;26;34580;-81
2021/12/06 03:55:46;;;;;;;;;;;;;;;0.30;100.00;99322.34;6707353;26;35131;-80
2021/12/06 03:58:49;;;;;;;;;;;;;;;0.25;100.00;99316.63;6706303;26;34756;-81
2021/12/06 04:01:54;;;;;;;;;;;;;;;0.19;100.00;99309.22;6700354;26;35396;-81
2021/12/06 04:04:57;;;;;;;;;;;;;;;0.24;100.00;99312.38;6700383;26;34462;-80
2021/12/06 04:08:01;;;;;;;;;;;;;;;0.30;100.00;99303.31;6700192;26;35158;-81
2021/12/06 04:11:04;;;;;;;;;;;;;;;0.24;100.00;99306.31;6700088;26;34650;-81
2021/12/06 04:14:07;;;;;;;;;;;;;;;0.15;100.00;99318.16;6681410;26;35100;-80
2021/12/06 04:17:12;;;;;;;;;;;;;;;0.13;100.00;99310.44;6701031;26;34827;-82
2021/12/06 04:20:16;;;;;;;;;;;;;;;0.19;100.00;99308.41;6700054;26;34869;-81
2021/12/06 04:23:19;;;;;;;;;;;;;;;0.08;100.00;99311.66;6705853;26;34376;-82
2021/12/06 04:26:24;;;;;;;;;;;;;;;0.08;100.00;99307.31;6700498;26;35378;-81
2021/12/06 04:29:27;;;;;;;;;;;;;;;0.08;100.00;99311.66;6700278;26;34755;-80
2021/12/06 04:32:29;;;;;;;;;;;;;;;0.02;100.00;99323.31;6700580;26;35154;-81
2021/12/06 04:35:35;;;;;;;;;;;;;;;0.05;100.00;99314.50;6701763;26;34410;-81
2021/12/06 04:38:39;;;;;;;;;;;;;;;-0.01;100.00;99308.72;6700042;26;35243;-80
2021/12/06 04:41:42;;;;;;;;;;;;;;;0.06;100.00;99313.53;6704549;26;34658;-80
2021/12/06 04:44:45;;;;;;;;;;;;;;;0.20;100.00;99326.50;6704504;26;34609;-81
2021/12/06 04:47:50;;;;;;;;;;;;;;;0.12;100.00;99326.16;6700414;26;34897;-81
2021/12/06 04:50:53;;;;;;;;;;;;;;;0.09;100.00;99328.94;6700637;26;35214;-80
2021/12/06 04:53:56;;;;;;;;;;;;;;;0.09;100.00;99324.59;6699916;26;35231;-80
2021/12/06 04:57:13;;;;;;;;;;;;;;;0.01;100.00;99336.41;6700437;26;35774;-80
2021/12/06 05:00:32;;;;;;;;;;;;;;;0.03;100.00;99339.75;6699674;26;34579;-80
2021/12/06 05:03:38;;;;;;;;;;;;;;;-0.01;100.00;99334.75;6703103;26;34455;-80
2021/12/06 05:06:46;;;;;;;;;;;;;;;-0.02;100.00;99343.47;6700339;26;34813;-81
2021/12/06 05:09:49;;;;;;;;;;;;;;;0.05;100.00;99350.91;6700664;26;34370;-81
2021/12/06 05:12:52;;;;;;;;;;;;;;;-0.02;100.00;99350.44;6700017;26;34643;-80
2021/12/06 05:15:55;;;;;;;;;;;;;;;-0.03;100.00;99365.22;6700029;26;35206;-81
2021/12/06 05:19:04;;;;;;;;;;;;;;;-0.02;100.00;99364.28;6699737;26;35093;-80
2021/12/06 05:22:07;;;;;;;;;;;;;;;-0.06;100.00;99360.22;6700133;26;34391;-80
2021/12/06 05:25:11;;;;;;;;;;;;;;;0.03;100.00;99365.75;6701195;26;34838;-80
2021/12/06 05:28:14;;;;;;;;;;;;;;;0.05;100.00;99369.94;6700752;26;35463;-81
2021/12/06 05:31:20;;;;;;;;;;;;;;;-0.09;100.00;99376.00;6699105;26;35145;-79
2021/12/06 05:34:32;;;;;;;;;;;;;;;0.04;100.00;99377.84;6699380;26;34761;-80
2021/12/06 05:37:45;;;;;;;;;;;;;;;0.00;100.00;99382.41;6699881;26;34788;-79
2021/12/06 05:40:48;;;;;;;;;;;;;;;-0.05;100.00;99390.47;6699317;26;35267;-79
2021/12/06 05:43:50;;;;;;;;;;;;;;;-0.08;100.00;99388.06;6698588;26;35351;-79
2021/12/06 05:46:53;;;;;;;;;;;;;;;-0.01;100.00;99376.34;6699790;26;34248;-80
2021/12/06 05:49:57;;;;;;;;;;;;;;;0.05;100.00;99382.09;6699138;26;35065;-80
2021/12/06 05:53:02;;;;;;;;;;;;;;;0.01;100.00;99391.03;6699394;26;34869;-79
2021/12/06 05:56:12;;;;;;;;;;;;;;;-0.01;100.00;99385.94;6699995;26;34894;-79
2021/12/06 05:59:14;;;;;;;;;;;;;;;0.01;100.00;99383.22;6698910;26;35400;-79
2021/12/06 06:02:18;;;;;;;;;;;;;;;-0.11;100.00;99388.25;6683380;26;34912;-79
2021/12/06 06:05:21;;;;;;;;;;;;;;;0.01;100.00;99384.03;6699921;26;34976;-80
2021/12/06 06:08:25;;;;;;;;;;;;;;;0.02;100.00;99395.28;6696401;26;34870;-79
2021/12/06 06:11:28;;;;;;;;;;;;;;;0.00;100.00;99387.59;6698434;26;34806;-81
2021/12/06 06:14:31;;;;;;;;;;;;;;;0.11;100.00;99392.13;6698857;26;34935;-80
2021/12/06 06:17:40;;;;;;;;;;;;;;;0.04;100.00;99403.84;6699173;26;35872;-79
2021/12/06 06:20:45;;;;;;;;;;;;;;;0.02;100.00;99405.69;6698349;26;35395;-80
2021/12/06 06:23:47;;;;;;;;;;;;;;;0.01;100.00;99414.44;6698878;26;34551;-79
2021/12/06 06:26:50;;;;;;;;;;;;;;;0.17;100.00;99416.91;6699589;26;34918;-80
2021/12/06 06:29:52;;;;;;;;;;;;;;;0.18;100.00;99426.38;6700987;26;35026;-79
2021/12/06 06:32:55;;;;;;;;;;;;;;;0.28;100.00;99423.09;6700012;26;35077;-80
2021/12/06 06:35:59;;;;;;;;;;;;;;;0.14;100.00;99420.53;6698565;26;34565;-79
2021/12/06 06:39:04;;;;;;;;;;;;;;;0.16;100.00;99418.69;6699086;26;35439;-79
2021/12/06 06:42:09;;;;;;;;;;;;;;;0.34;100.00;99421.03;6698579;26;34274;-80
2021/12/06 06:45:16;;;;;;;;;;;;;;;0.27;100.00;99431.00;6699048;26;34578;-79
2021/12/06 06:48:19;;;;;;;;;;;;;;;0.16;100.00;99431.69;6698765;26;34260;-80
2021/12/06 06:51:21;;;;;;;;;;;;;;;0.16;100.00;99444.69;6698510;26;34835;-80
2021/12/06 06:54:27;;;;;;;;;;;;;;;0.25;100.00;99444.13;6699538;26;34288;-80
2021/12/06 06:57:30;;;;;;;;;;;;;;;0.30;100.00;99447.25;6700293;26;35082;-81
2021/12/06 07:00:34;;;;;;;;;;;;;;;0.30;100.00;99446.44;6700085;26;34844;-81
2021/12/06 07:03:39;;;;;;;;;;;;;;;0.53;100.00;99459.75;6700050;26;35164;-81
2021/12/06 07:06:42;;;;;;;;;;;;;;;0.37;100.00;99465.91;6699949;26;35132;-79
2021/12/06 07:09:45;;;;;;;;;;;;;;;0.35;100.00;99472.97;6699091;26;34468;-80
2021/12/06 07:12:50;;;;;;;;;;;;;;;0.48;100.00;99477.41;6698032;26;34622;-80
2021/12/06 07:15:52;;;;;;;;;;;;;;;0.63;100.00;99481.66;6698664;26;34819;-79
2021/12/06 07:18:56;;;;;;;;;;;;;;;0.77;100.00;99491.19;6701810;26;34251;-79
2021/12/06 07:21:58;;;;;;;;;;;;;;;0.73;100.00;99487.12;6699715;26;34765;-80
2021/12/06 07:25:01;;;;;;;;;;;;;;;0.94;100.00;99487.50;6699729;26;34288;-80
2021/12/06 07:28:05;;;;;;;;;;;;;;;0.87;100.00;99494.88;6699436;26;34355;-79
2021/12/06 07:31:11;;;;;;;;;;;;;;;0.88;100.00;99506.97;6700064;26;35197;-80
2021/12/06 07:34:14;;;;;;;;;;;;;;;0.86;100.00;99505.37;6699518;26;34919;-79
2021/12/06 07:37:21;;;;;;;;;;;;;;;0.99;100.00;99510.63;6699203;26;34437;-79
2021/12/06 07:40:27;;;;;;;;;;;;;;;1.07;100.00;99508.34;6703412;26;34404;-80
2021/12/06 07:43:32;;;;;;;;;;;;;;;1.08;100.00;99499.59;6700138;26;34886;-81
2021/12/06 07:46:35;;;;;;;;;;;;;;;0.97;100.00;99499.47;6679871;26;35841;-80
2021/12/06 07:49:38;;;;;;;;;;;;;;;1.06;100.00;99501.50;6699876;26;34493;-79
2021/12/06 07:53:00;;;;;;;;;;;;;;;1.18;100.00;99510.28;6698214;26;34847;-80
2021/12/06 07:56:03;;;;;;;;;;;;;;;1.25;100.00;99515.91;6699576;26;35328;-79
2021/12/06 07:59:05;;;;;;;;;;;;;;;1.18;100.00;99516.31;6700424;26;34472;-79
2021/12/06 08:02:08;;;;;;;;;;;;;;;1.10;100.00;99518.59;6700304;26;34876;-80
2021/12/06 08:05:32;;;;;;;;;;;;;;;1.15;100.00;99516.53;6699292;26;34800;-80
2021/12/06 08:08:38;;;;;;;;;;;;;;;1.00;100.00;99518.38;6700255;26;35873;-81
2021/12/06 08:11:42;;;;;;;;;;;;;;;1.19;100.00;99517.16;6699573;26;34767;-80
2021/12/06 08:14:44;;;;;;;;;;;;;;;1.13;100.00;99518.41;6700467;26;34673;-80
2021/12/06 08:17:47;;;;;;;;;;;;;;;1.10;100.00;99517.75;6700272;26;34971;-81
2021/12/06 08:20:50;;;;;;;;;;;;;;;1.33;100.00;99524.06;6703469;26;34791;-81
2021/12/06 08:23:54;;;;;;;;;;;;;;;1.33;100.00;99526.66;6700450;26;34992;-80
2021/12/06 08:26:56;;;;;;;;;;;;;;;1.11;100.00;99527.25;6701035;26;34968;-82
2021/12/06 08:30:02;;;;;;;;;;;;;;;1.21;100.00;99516.13;6700666;26;35298;-81
2021/12/06 08:33:05;;;;;;;;;;;;;;;1.37;100.00;99541.19;6700324;26;35011;-81
2021/12/06 08:36:09;;;;;;;;;;;;;;;1.38;100.00;99540.25;6700903;26;34082;-81
2021/12/06 08:39:12;;;;;;;;;;;;;;;1.36;100.00;99535.13;6700541;26;34418;-81
2021/12/06 08:42:14;;;;;;;;;;;;;;;1.26;100.00;99541.06;6700552;26;34463;-80
2021/12/06 08:45:17;;;;;;;;;;;;;;;1.18;100.00;99541.53;6699976;26;34797;-79
2021/12/06 08:48:22;;;;;;;;;;;;;;;1.24;100.00;99556.75;6699639;26;35872;-79
2021/12/06 08:51:29;;;;;;;;;;;;;;;1.24;100.00;99546.34;6700043;26;34495;-79
2021/12/06 08:54:32;;;;;;;;;;;;;;;1.20;100.00;99550.94;6700424;26;34564;-81
2021/12/06 08:57:35;;;;;;;;;;;;;;;1.39;100.00;99547.12;6700211;26;34957;-80
2021/12/06 09:00:40;;;;;;;;;;;;;;;1.57;100.00;99546.84;6700435;26;34961;-81
2021/12/06 09:03:47;;;;;;;;;;;;;;;1.54;100.00;99559.13;6699745;26;34676;-80
2021/12/06 09:06:51;;;;;;;;;;;;;;;1.72;100.00;99561.47;6699494;26;34786;-80
2021/12/06 09:09:57;;;;;;;;;;;;;;;1.45;100.00;99554.53;6700158;26;34892;-81
2021/12/06 09:13:01;;;;;;;;;;;;;;;1.56;100.00;99555.59;6699651;26;35779;-80
2021/12/06 09:16:07;;;;;;;;;;;;;;;1.34;100.00;99551.81;6700635;26;34511;-80
2021/12/06 09:19:12;;;;;;;;;;;;;;;1.67;100.00;99553.09;6705220;26;34934;-80
2021/12/06 09:22:16;;;;;;;;;;;;;;;1.69;100.00;99546.84;6700165;26;34833;-80
2021/12/06 09:25:19;;;;;;;;;;;;;;;1.97;100.00;99542.38;6699930;26;34830;-79
2021/12/06 09:28:22;;;;;;;;;;;;;;;2.05;100.00;99531.44;6697621;26;34865;-79
2021/12/06 09:31:24;;;;;;;;;;;;;;;1.64;100.00;99535.06;6697791;26;34755;-79
2021/12/06 09:34:28;;;;;;;;;;;;;;;1.77;100.00;99522.03;6697367;26;34750;-78
2021/12/06 09:37:31;;;;;;;;;;;;;;;2.07;100.00;99528.69;6697461;26;34879;-79
2021/12/06 09:40:35;;;;;;;;;;;;;;;1.99;100.00;99531.84;6698229;26;34862;-79
2021/12/06 09:43:39;;;;;;;;;;;;;;;2.15;100.00;99522.03;6698049;26;34851;-79
2021/12/06 09:46:42;;;;;;;;;;;;;;;2.42;100.00;99523.63;6697929;26;34318;-80
2021/12/06 09:49:48;;;;;;;;;;;;;;;2.37;100.00;99520.53;6696986;26;34386;-78
2021/12/06 09:52:56;;;;;;;;;;;;;;;2.08;100.00;99519.94;6697258;26;34696;-78
2021/12/06 09:56:04;;;;;;;;;;;;;;;2.22;100.00;99519.81;6699213;26;35249;-80
2021/12/06 09:59:09;;;;;;;;;;;;;;;2.50;100.00;99524.88;6705855;26;35127;-79
2021/12/06 10:02:17;;;;;;;;;;;;;;;2.61;100.00;99517.94;6698134;26;34519;-79
2021/12/06 10:05:26;;;;;;;;;;;;;;;2.92;100.00;99520.13;6699647;26;35290;-80
2021/12/06 10:08:29;;;;;;;;;;;;;;;3.13;100.00;99506.44;6698501;26;35194;-80
2021/12/06 10:11:32;;;;;;;;;;;;;;;2.99;100.00;99505.66;6698967;26;34503;-79
2021/12/06 10:14:36;;;;;;;;;;;;;;;3.15;100.00;99509.78;6698523;26;34867;-80
2021/12/06 10:17:47;;;;;;;;;;;;;;;3.22;100.00;99510.97;6699903;26;34871;-80
2021/12/06 10:20:49;;;;;;;;;;;;;;;3.02;100.00;99500.22;6699032;26;34969;-80
2021/12/06 10:23:53;;;;;;;;;;;;;;;2.76;100.00;99483.84;6697314;26;35286;-79
2021/12/06 10:27:08;;;;;;;;;;;;;;;2.63;100.00;99486.50;6697270;26;34765;-79
2021/12/06 10:30:11;;;;;;;;;;;;;;;2.68;100.00;99492.22;6697664;26;35024;-80
2021/12/06 10:33:20;;;;;;;;;;;;;;;2.89;100.00;99494.22;6698941;26;34863;-79
2021/12/06 10:36:24;;;;;;;;;;;;;;;2.98;100.00;99483.13;6699644;26;34770;-79
2021/12/06 10:39:34;;;;;;;;;;;;;;;2.81;100.00;99496.56;6698699;26;32998;-79
2021/12/06 10:42:41;;;;;;;;;;;;;;;2.55;100.00;99501.88;6698123;26;34471;-79
2021/12/06 10:45:47;;;;;;;;;;;;;;;2.65;100.00;99508.09;6697290;26;34415;-79
2021/12/06 10:48:56;;;;;;;;;;;;;;;2.86;100.00;99521.41;6697302;26;34495;-80
2021/12/06 10:51:58;;;;;;;;;;;;;;;3.12;100.00;99541.34;6699831;26;35165;-79
2021/12/06 10:55:02;;;;;;;;;;;;;;;3.26;100.00;99556.88;6697673;26;34898;-79
2021/12/06 10:58:12;;;;;;;;;;;;;;;3.40;100.00;99569.78;6701545;26;34552;-80
2021/12/06 11:01:17;;;;;;;;;;;;;;;3.47;100.00;99561.47;6679816;26;34883;-80
2021/12/06 11:04:21;;;;;;;;;;;;;;;3.45;100.00;99569.44;6697817;26;35240;-80
2021/12/06 11:07:30;;;;;;;;;;;;;;;3.21;100.00;99570.28;6697669;26;35380;-80
2021/12/06 11:10:37;;;;;;;;;;;;;;;2.89;100.00;99567.37;6698483;26;34248;-78
2021/12/06 11:13:44;;;;;;;;;;;;;;;2.73;100.00;99576.31;6698040;26;35147;-80
2021/12/06 11:16:49;;;;;;;;;;;;;;;3.04;100.00;99571.50;6699183;26;34818;-81
2021/12/06 11:19:54;;;;;;;;;;;;;;;3.08;100.00;99569.50;6698452;26;34611;-79
2021/12/06 11:23:03;;;;;;;;;;;;;;;2.89;100.00;99577.81;6698865;26;34631;-82
2021/12/06 11:26:06;;;;;;;;;;;;;;;2.80;100.00;99588.94;6697554;26;34653;-81
2021/12/06 11:29:16;;;;;;;;;;;;;;;2.45;100.00;99595.72;6697988;26;35453;-79
2021/12/06 11:32:23;;;;;;;;;;;;;;;2.33;100.00;99586.94;6698404;26;34330;-80
2021/12/06 11:35:28;;;;;;;;;;;;;;;2.38;100.00;99595.28;6697685;26;35831;-80
2021/12/06 11:38:30;;;;;;;;;;;;;;;2.58;100.00;99601.75;6698255;26;34680;-81
2021/12/06 11:41:33;;;;;;;;;;;;;;;2.72;100.00;99603.38;6697720;26;34315;-80
2021/12/06 11:44:38;;;;;;;;;;;;;;;2.68;100.00;99596.69;6698379;26;34734;-79
2021/12/06 11:47:41;;;;;;;;;;;;;;;2.88;100.00;99602.28;6698973;26;34449;-79
2021/12/06 11:50:45;;;;;;;;;;;;;;;3.12;100.00;99588.41;6699676;26;34888;-80
2021/12/06 11:53:58;;;;;;;;;;;;;;;3.08;100.00;99593.03;6700697;26;35316;-80
2021/12/06 11:57:08;;;;;;;;;;;;;;;2.92;100.00;99606.34;6702432;26;34659;-79
2021/12/06 12:00:16;;;;;;;;;;;;;;;2.89;100.00;99599.59;6699685;26;34672;-80
2021/12/06 12:03:29;;;;;;;;;;;;;;;3.19;100.00;99606.16;6699515;26;34435;-80
2021/12/06 12:06:34;;;;;;;;;;;;;;;3.06;100.00;99600.13;6699191;26;35973;-80
2021/12/06 12:09:40;;;;;;;;;;;;;;;2.97;100.00;99596.44;6698325;26;34495;-80
2021/12/06 12:12:52;;;;;;;;;;;;;;;3.02;100.00;99609.97;6700494;26;34544;-80
2021/12/06 12:15:56;;;;;;;;;;;;;;;3.35;100.00;99602.44;6699072;26;35055;-80
2021/12/06 12:18:58;;;;;;;;;;;;;;;3.58;100.00;99594.69;6699308;26;34643;-80
2021/12/06 12:22:02;;;;;;;;;;;;;;;3.38;100.00;99582.13;6699524;26;35168;-79
2021/12/06 12:25:21;;;;;;;;;;;;;;;3.07;100.00;99579.13;6698623;26;35683;-80
2021/12/06 12:28:34;;;;;;;;;;;;;;;3.00;100.00;99571.84;6699982;26;34674;-80
2021/12/06 12:31:37;;;;;;;;;;;;;;;3.22;100.00;99573.72;6699146;26;34109;-79
2021/12/06 12:34:45;;;;;;;;;;;;;;;2.99;100.00;99578.00;6698156;26;34962;-79
2021/12/06 12:37:50;;;;;;;;;;;;;;;3.00;100.00;99575.28;6702922;26;34526;-81
2021/12/06 12:40:56;;;;;;;;;;;;;;;3.31;100.00;99567.84;6704058;26;34553;-80
2021/12/06 12:44:07;;;;;;;;;;;;;;;3.16;100.00;99561.94;6698669;26;34653;-80
2021/12/06 12:47:30;;;;;;;;;;;;;;;3.30;100.00;99560.09;6700445;26;35268;-82
2021/12/06 12:50:35;;;;;;;;;;;;;;;3.05;100.00;99569.72;6700228;26;35032;-81
2021/12/06 12:53:53;;;;;;;;;;;;;;;3.15;100.00;99567.28;6699519;26;34367;-81
2021/12/06 12:57:00;;;;;;;;;;;;;;;3.02;100.00;99573.41;6699154;26;35097;-81
2021/12/06 13:00:04;;;;;;;;;;;;;;;2.94;100.00;99573.94;6700680;26;34683;-79
2021/12/06 13:03:26;;;;;;;;;;;;;;;3.05;100.00;99577.56;6699806;26;34712;-81
2021/12/06 13:06:29;;;;;;;;;;;;;;;3.12;100.00;99585.78;6700155;26;34690;-81
2021/12/06 13:09:31;;;;;;;;;;;;;;;2.82;100.00;99576.59;6700824;26;35009;-81
2021/12/06 13:12:53;;;;;;;;;;;;;;;2.70;100.00;99578.31;6700396;26;34946;-81
2021/12/06 13:16:32;;;;;;;;;;;;;;;2.70;100.00;99584.38;6701066;26;34233;-81
2021/12/06 13:19:47;;;;;;;;;;;;;;;2.64;100.00;99587.44;6689722;26;34535;-82
2021/12/06 13:22:50;;;;;;;;;;;;;;;2.62;100.00;99590.13;6703839;26;37123;-82
2021/12/06 13:26:09;;;;;;;;;;;;;;;2.59;100.00;99603.38;6702424;26;34635;-80
2021/12/06 13:29:14;;;;;;;;;;;;;;;2.59;100.00;99597.34;6700352;26;35662;-79
2021/12/06 13:32:38;;;;;;;;;;;;;;;2.55;100.00;99608.94;6700833;26;34735;-79
2021/12/06 13:35:52;;;;;;;;;;;;;;;2.55;100.00;99611.56;6699967;26;34651;-80
2021/12/06 13:38:55;;;;;;;;;;;;;;;2.47;100.00;99605.09;6700622;26;34924;-81
2021/12/06 13:42:06;;;;;;;;;;;;;;;2.53;100.00;99603.84;6699696;26;33259;-79
2021/12/06 13:45:19;;;;;;;;;;;;;;;2.52;100.00;99614.41;6701286;26;34855;-80
2021/12/06 13:48:33;;;;;;;;;;;;;;;2.50;100.00;99618.88;6683346;26;34669;-80
2021/12/06 13:51:42;;;;;;;;;;;;;;;2.38;100.00;99616.19;6703434;26;34857;-80
2021/12/06 13:54:49;;;;;;;;;;;;;;;2.21;100.00;99613.88;6701469;26;34588;-79
2021/12/06 13:57:58;;;;;;;;;;;;;;;2.22;100.00;99613.78;6700145;26;34771;-81
2021/12/06 14:01:03;;;;;;;;;;;;;;;2.14;100.00;99619.50;6701588;26;34916;-82
2021/12/06 14:04:08;;;;;;;;;;;;;;;2.17;100.00;99623.69;6699318;26;34826;-82
2021/12/06 14:07:11;;;;;;;;;;;;;;;2.27;100.00;99623.91;6701179;26;34830;-83
2021/12/06 14:10:14;;;;;;;;;;;;;;;2.26;100.00;99636.09;6700367;26;35249;-82
2021/12/06 14:13:19;;;;;;;;;;;;;;;2.14;100.00;99639.53;6699809;26;34519;-83
2021/12/06 14:16:29;;;;;;;;;;;;;;;2.00;100.00;99633.50;6700053;26;34374;-83
2021/12/06 14:19:32;;;;;;;;;;;;;;;2.01;100.00;99642.16;6702038;26;34396;-83
2021/12/06 14:22:35;;;;;;;;;;;;;;;1.85;100.00;99644.94;6700403;26;35180;-83
2021/12/06 14:25:41;;;;;;;;;;;;;;;1.96;100.00;99652.06;6700130;26;34369;-83
2021/12/06 14:28:46;;;;;;;;;;;;;;;1.82;100.00;99651.22;6699889;26;34518;-83
2021/12/06 14:31:51;;;;;;;;;;;;;;;1.92;100.00;99650.59;6701296;26;34322;-83
2021/12/06 14:34:56;;;;;;;;;;;;;;;1.77;100.00;99649.84;6701254;26;34383;-82
2021/12/06 14:37:58;;;;;;;;;;;;;;;1.73;100.00;99657.03;6700984;26;35284;-82
2021/12/06 14:41:06;;;;;;;;;;;;;;;1.74;100.00;99656.09;6700503;26;34722;-82
2021/12/06 14:44:08;;;;;;;;;;;;;;;1.62;100.00;99651.69;6700061;26;34875;-82
2021/12/06 14:47:25;;;;;;;;;;;;;;;1.66;100.00;99660.97;6700246;26;34596;-83
2021/12/06 14:50:34;;;;;;;;;;;;;;;1.61;100.00;99652.63;6698709;26;35217;-82
2021/12/06 14:56:56;;;;;;;;;;;;;;;1.43;100.00;99658.06;6698926;26;35107;-82
2021/12/06 15:00:26;;;;;;;;;;;;;;;1.42;100.00;99656.38;6693097;26;142535;-82
2021/12/06 15:03:38;;;;;;;;;;;;;;;1.52;100.00;99659.25;6684638;26;34864;-82
2021/12/06 15:06:41;;;;;;;;;;;;;;;1.52;100.00;99660.06;6699432;26;35142;-82
2021/12/06 15:09:51;;;;;;;;;;;;;;;1.48;100.00;99658.63;6698813;26;35456;-82
2021/12/06 15:12:57;;;;;;;;;;;;;;;1.61;100.00;99665.66;6698547;26;35509;-82
2021/12/06 15:16:01;;;;;;;;;;;;;;;1.54;100.00;99668.63;6700128;26;35493;-82
2021/12/06 15:19:09;;;;;;;;;;;;;;;1.54;100.00;99667.81;6702132;26;35531;-82
2021/12/06 15:22:12;;;;;;;;;;;;;;;1.47;100.00;99669.97;6702426;26;34721;-83
2021/12/06 15:25:16;;;;;;;;;;;;;;;1.45;100.00;99674.44;6700246;26;34778;-83
2021/12/06 15:28:25;;;;;;;;;;;;;;;1.57;100.00;99679.81;6701761;26;34896;-83
2021/12/06 15:31:33;;;;;;;;;;;;;;;1.58;100.00;99679.69;6700604;26;35765;-80
2021/12/06 15:34:37;;;;;;;;;;;;;;;1.61;100.00;99676.09;6700154;26;34731;-82
2021/12/06 15:37:40;;;;;;;;;;;;;;;1.54;100.00;99681.69;6701002;26;34903;-84
2021/12/06 15:40:44;;;;;;;;;;;;;;;1.48;100.00;99679.47;6700772;26;34827;-81
2021/12/06 15:43:57;;;;;;;;;;;;;;;1.51;100.00;99684.50;6700139;26;34061;-83
2021/12/06 15:47:03;;;;;;;;;;;;;;;1.42;100.00;99679.84;6702077;26;35232;-83
2021/12/06 15:50:10;;;;;;;;;;;;;;;1.45;100.00;99690.09;6701365;26;34938;-82
2021/12/06 15:53:17;;;;;;;;;;;;;;;1.52;100.00;99686.16;6701711;26;35278;-80
2021/12/06 15:56:20;;;;;;;;;;;;;;;1.52;100.00;99691.34;6702385;26;35168;-82
2021/12/06 15:59:24;;;;;;;;;;;;;;;1.42;100.00;99689.47;6702881;26;35269;-82
2021/12/06 16:02:33;;;;;;;;;;;;;;;1.32;100.00;99686.59;6700476;26;35852;-82
2021/12/06 16:05:45;;;;;;;;;;;;;;;1.28;100.00;99695.53;6701064;26;34380;-82
2021/12/06 16:08:48;;;;;;;;;;;;;;;1.26;100.00;99700.00;6653174;26;34828;-83
2021/12/06 16:12:02;;;;;;;;;;;;;;;1.21;100.00;99708.94;6644496;26;35791;-83
2021/12/06 16:15:05;;;;;;;;;;;;;;;1.26;100.00;99726.06;6644395;26;34812;-82
2021/12/06 16:18:14;;;;;;;;;;;;;;;1.25;100.00;99725.22;6644289;26;34616;-82
2021/12/06 16:21:26;;;;;;;;;;;;;;;1.32;100.00;99730.88;6644287;26;35166;-83